Time;durP1;ratioP1;P1;durP2;ratioP2;P2;SDS_P1;SDS_P2;PMS_P1;PMS_P2;Temp;Humidity;BMP_temperature;BMP_pressure;BME280_temperature;BME280_humidity;BME280_pressure;Samples;Min_cycle;Max_cycle;Signal;HPM_P1;HPM_P2
2021/12/09 05:16:11;;;;;;;38.63;18.92;;;;;;;-0.44;100.00;99546.25;5555170;32;279381;-88
2021/12/09 05:19:14;;;;;;;40.75;19.17;;;;;;;-0.46;100.00;99555.84;5564624;32;33932;-88
2021/12/09 05:22:18;;;;;;;38.63;17.77;;;;;;;-0.42;100.00;99541.88;5562730;32;34552;-88
2021/12/09 05:25:21;;;;;;;37.88;18.40;;;;;;;-0.36;100.00;99543.50;5563813;32;33504;-88
2021/12/09 05:28:32;;;;;;;38.95;18.55;;;;;;;-0.24;100.00;99545.03;5564227;32;34126;-88
2021/12/09 05:34:58;;;;;;;39.17;18.98;;;;;;;-0.30;100.00;99548.59;5563891;32;33813;-88
2021/12/09 05:38:01;;;;;;;39.13;19.08;;;;;;;-0.28;100.00;99548.59;5563241;32;33616;-88
2021/12/09 05:41:04;;;;;;;43.25;20.50;;;;;;;-0.21;100.00;99544.97;5563713;32;33930;-88
2021/12/09 05:44:08;;;;;;;36.17;18.12;;;;;;;-0.22;100.00;99532.84;5563136;32;34060;-88
2021/12/09 05:47:12;;;;;;;40.72;18.80;;;;;;;-0.25;100.00;99543.31;5562639;32;33963;-89
2021/12/09 05:50:15;;;;;;;40.42;19.90;;;;;;;-0.30;100.00;99546.00;5562947;32;35030;-88
2021/12/09 05:53:17;;;;;;;45.70;21.83;;;;;;;-0.25;100.00;99540.69;5565473;32;33516;-88
2021/12/09 05:56:22;;;;;;;42.05;19.98;;;;;;;-0.17;100.00;99524.91;5563897;32;32561;-88
2021/12/09 05:59:25;;;;;;;46.88;22.73;;;;;;;-0.23;100.00;99528.50;5562644;32;33939;-88
2021/12/09 06:02:29;;;;;;;46.63;21.60;;;;;;;-0.27;100.00;99532.06;5562367;32;34841;-88
2021/12/09 06:05:33;;;;;;;48.53;22.23;;;;;;;-0.19;100.00;99511.06;5565149;32;34246;-88
2021/12/09 06:08:38;;;;;;;55.97;23.90;;;;;;;-0.19;100.00;99487.59;5562302;32;34180;-93
2021/12/09 06:11:45;;;;;;;49.42;22.65;;;;;;;-0.16;100.00;99466.66;5563075;32;34150;-93
2021/12/09 06:14:48;;;;;;;49.35;21.65;;;;;;;-0.19;100.00;99478.00;5561996;32;33790;-89
2021/12/09 06:17:51;;;;;;;50.95;23.35;;;;;;;-0.22;100.00;99482.44;5563572;32;33617;-88
2021/12/09 06:20:53;;;;;;;44.60;21.42;;;;;;;-0.16;100.00;99491.00;5563299;32;33712;-88
2021/12/09 06:23:59;;;;;;;48.42;21.52;;;;;;;-0.09;100.00;99502.19;5564443;32;33925;-88
2021/12/09 06:27:06;;;;;;;45.20;21.55;;;;;;;-0.11;100.00;99488.28;5558538;32;34036;-88
2021/12/09 06:30:10;;;;;;;47.20;22.55;;;;;;;-0.14;100.00;99494.44;5560093;32;33465;-88
2021/12/09 06:33:13;;;;;;;45.97;21.42;;;;;;;-0.08;100.00;99488.25;5544138;32;34648;-88
2021/12/09 06:36:16;;;;;;;42.58;19.52;;;;;;;-0.13;100.00;99484.88;5549492;32;34532;-88
2021/12/09 06:39:19;;;;;;;41.08;20.37;;;;;;;-0.15;100.00;99484.88;5547116;32;34509;-88
2021/12/09 06:42:22;;;;;;;39.40;19.25;;;;;;;-0.09;99.64;99481.31;5554200;32;33848;-88
2021/12/09 06:45:24;;;;;;;38.78;19.10;;;;;;;-0.03;98.86;99490.75;5548814;32;34060;-88
2021/12/09 06:48:27;;;;;;;41.28;19.40;;;;;;;-0.19;99.33;99493.66;5551056;32;33776;-88
2021/12/09 06:51:30;;;;;;;43.38;20.20;;;;;;;-0.12;98.91;99497.00;5553809;32;33916;-88
2021/12/09 06:54:33;;;;;;;41.63;19.92;;;;;;;-0.09;98.94;99496.97;5539065;32;33524;-88
2021/12/09 06:57:38;;;;;;;47.15;20.67;;;;;;;-0.14;99.10;99489.22;5549501;32;34590;-88
2021/12/09 07:00:46;;;;;;;41.63;19.27;;;;;;;-0.12;99.19;99491.78;5551159;32;34506;-88
2021/12/09 07:03:51;;;;;;;39.25;17.55;;;;;;;-0.08;99.01;99475.22;5544837;32;35115;-87
2021/12/09 07:06:53;;;;;;;40.12;19.10;;;;;;;-0.01;98.25;99482.00;5545786;32;34007;-87
2021/12/09 07:09:56;;;;;;;40.38;18.55;;;;;;;-0.05;98.42;99493.38;5543889;32;34442;-87
2021/12/09 07:12:59;;;;;;;41.33;18.15;;;;;;;-0.02;98.54;99500.28;5550104;32;33878;-87
2021/12/09 07:16:02;;;;;;;40.72;18.15;;;;;;;0.01;97.64;99494.16;5539643;32;36441;-87
2021/12/09 07:19:06;;;;;;;41.20;18.48;;;;;;;0.04;97.39;99494.94;5533389;32;33621;-88
2021/12/09 07:22:09;;;;;;;40.17;19.02;;;;;;;0.08;97.06;99504.44;5540846;32;33719;-87
2021/12/09 07:25:13;;;;;;;38.42;17.70;;;;;;;0.00;97.34;99501.12;5553203;32;34145;-88
2021/12/09 07:28:17;;;;;;;41.33;18.17;;;;;;;-0.07;97.34;99510.81;5545298;32;34003;-88
2021/12/09 07:31:20;;;;;;;36.22;17.83;;;;;;;-0.02;97.92;99519.41;5552603;32;34677;-89
2021/12/09 07:34:23;;;;;;;36.75;16.35;;;;;;;0.02;97.33;99525.44;5549934;32;33774;-87
2021/12/09 07:37:27;;;;;;;46.63;18.02;;;;;;;-0.03;97.07;99522.91;5562253;32;34640;-89
2021/12/09 07:40:30;;;;;;;37.72;18.20;;;;;;;0.03;97.32;99511.50;5566513;32;34176;-88
2021/12/09 07:43:34;;;;;;;39.80;18.15;;;;;;;-0.04;97.27;99504.69;5539790;32;34604;-88
2021/12/09 07:46:36;;;;;;;39.40;18.05;;;;;;;0.05;97.30;99499.25;5553462;32;34185;-88
2021/12/09 07:49:39;;;;;;;35.83;17.80;;;;;;;0.13;96.45;99484.34;5551993;32;33950;-87
2021/12/09 07:52:45;;;;;;;39.28;17.87;;;;;;;0.01;97.13;99482.00;5588336;26;34091;-88
2021/12/09 07:55:48;;;;;;;37.58;16.50;;;;;;;0.06;96.61;99482.75;5554717;32;34836;-87
2021/12/09 07:58:51;;;;;;;38.83;17.02;;;;;;;0.07;96.68;99468.81;5558466;32;34792;-86
2021/12/09 08:01:54;;;;;;;36.28;16.62;;;;;;;0.09;96.16;99473.97;5560493;32;34121;-88
2021/12/09 08:04:57;;;;;;;31.45;15.32;;;;;;;0.08;96.44;99467.06;5551960;32;34287;-87
2021/12/09 08:08:00;;;;;;;36.13;17.05;;;;;;;0.11;96.32;99474.81;5558682;32;33672;-87
2021/12/09 08:11:03;;;;;;;36.28;16.35;;;;;;;0.09;96.81;99468.75;5556792;32;34524;-87
2021/12/09 08:14:07;;;;;;;38.97;17.37;;;;;;;0.13;96.36;99458.25;5549721;32;35168;-88
2021/12/09 08:17:44;;;;;;;33.35;16.75;;;;;;;0.20;95.99;99458.13;5546673;32;35258;-92
2021/12/09 08:20:37;;;;;;;41.28;16.80;;;;;;;0.16;96.08;99446.03;5543822;32;33797;-89
2021/12/09 08:23:40;;;;;;;36.80;17.85;;;;;;;0.21;95.87;99447.63;5547598;32;32561;-89
2021/12/09 08:26:43;;;;;;;37.22;17.08;;;;;;;0.22;95.65;99459.81;5547214;32;33996;-89
2021/12/09 08:29:46;;;;;;;33.90;16.48;;;;;;;0.23;95.49;99466.75;5534951;32;33582;-88
2021/12/09 08:32:48;;;;;;;38.95;17.83;;;;;;;0.14;95.57;99459.09;5531533;32;35282;-87
2021/12/09 08:35:52;;;;;;;33.63;16.33;;;;;;;0.28;95.54;99457.94;5542127;32;33680;-89
2021/12/09 08:38:54;;;;;;;34.72;17.12;;;;;;;0.30;95.03;99453.56;5536334;32;33875;-88
2021/12/09 08:41:57;;;;;;;35.85;17.05;;;;;;;0.24;95.46;99454.53;5546362;32;34384;-88
2021/12/09 08:44:59;;;;;;;33.30;16.75;;;;;;;0.33;94.98;99448.25;5530713;32;33984;-90
2021/12/09 08:48:04;;;;;;;39.95;16.95;;;;;;;0.22;95.44;99445.91;5592886;26;33868;-89
2021/12/09 08:51:07;;;;;;;34.05;15.73;;;;;;;0.23;95.75;99453.69;5544870;32;34389;-89
2021/12/09 08:54:10;;;;;;;35.10;16.48;;;;;;;0.31;95.05;99437.87;5546234;32;34683;-90
2021/12/09 08:57:22;;;;;;;36.38;15.63;;;;;;;0.36;94.68;99435.16;5626190;26;34123;-88
2021/12/09 09:00:28;;;;;;;32.97;15.75;;;;;;;1.57;92.97;99432.13;5513837;32;33978;-91
2021/12/09 09:03:32;;;;;;;36.47;16.30;;;;;;;0.77;91.48;99440.28;5531177;32;34664;-88
2021/12/09 09:06:36;;;;;;;37.58;16.95;;;;;;;0.59;92.91;99428.53;5513640;32;33974;-87
2021/12/09 09:09:40;;;;;;;37.13;15.88;;;;;;;0.42;93.88;99421.09;5519591;32;34344;-87
2021/12/09 09:12:43;;;;;;;34.22;16.60;;;;;;;0.37;94.30;99427.31;5516768;32;34516;-86
2021/12/09 09:15:48;;;;;;;32.15;16.65;;;;;;;0.39;94.08;99433.34;5529942;32;34010;-88
2021/12/09 09:18:55;;;;;;;35.22;16.50;;;;;;;0.36;94.22;99433.38;5548483;32;34055;-88
2021/12/09 09:22:00;;;;;;;34.20;16.17;;;;;;;0.33;95.02;99436.09;5538860;32;33779;-87
2021/12/09 09:25:04;;;;;;;34.90;17.23;;;;;;;0.42;94.64;99444.59;5541652;32;34289;-89
2021/12/09 09:28:07;;;;;;;37.20;17.17;;;;;;;0.44;95.61;99442.81;5551480;32;34373;-89
2021/12/09 09:31:10;;;;;;;33.00;16.90;;;;;;;0.38;96.08;99447.28;5528280;32;34220;-88
2021/12/09 09:34:13;;;;;;;40.30;17.27;;;;;;;0.39;96.40;99455.94;5528007;32;34645;-89
2021/12/09 09:37:16;;;;;;;38.38;17.00;;;;;;;0.37;97.03;99457.75;5528738;32;34240;-89
2021/12/09 09:40:27;;;;;;;35.65;17.08;;;;;;;0.34;97.15;99452.56;5531425;32;34914;-89
2021/12/09 09:43:53;;;;;;;34.85;17.45;;;;;;;0.34;97.12;99442.13;5538027;32;34762;-89
2021/12/09 09:47:02;;;;;;;36.85;17.45;;;;;;;0.40;97.51;99421.13;5535804;32;34632;-88
2021/12/09 09:50:07;;;;;;;;;;;;;;;0.32;98.33;99403.06;5531003;32;34264;-87
2021/12/09 09:53:10;;;;;;;37.75;18.27;;;;;;;0.22;98.93;99384.16;5529668;32;34180;-88
2021/12/09 09:56:18;;;;;;;36.03;16.90;;;;;;;0.33;99.26;99376.06;5532080;32;33520;-87
2021/12/09 09:59:21;;;;;;;36.72;16.67;;;;;;;0.29;100.00;99363.16;5535406;32;34452;-88
2021/12/09 10:02:24;;;;;;;37.70;17.90;;;;;;;0.34;100.00;99358.66;5533850;32;33567;-88
2021/12/09 10:05:35;;;;;;;33.92;16.52;;;;;;;0.28;100.00;99366.63;5535330;32;34307;-88
2021/12/09 10:08:39;;;;;;;41.35;17.87;;;;;;;0.26;100.00;99351.03;5532262;32;35215;-88
2021/12/09 10:11:43;;;;;;;34.58;16.42;;;;;;;0.42;100.00;99343.69;5543139;32;34290;-87
2021/12/09 10:14:49;;;;;;;36.67;17.12;;;;;;;0.59;98.96;99337.16;5546305;32;33627;-86
2021/12/09 10:17:51;;;;;;;39.55;17.70;;;;;;;0.55;99.08;99349.44;5551928;32;34731;-89
2021/12/09 10:20:54;;;;;;;39.83;17.23;;;;;;;0.56;99.58;99348.56;5543227;32;33949;-88
2021/12/09 10:23:59;;;;;;;36.70;17.37;;;;;;;0.67;99.32;99350.91;5565088;26;33816;-89
2021/12/09 10:27:02;;;;;;;33.85;17.10;;;;;;;0.77;99.47;99333.25;5543982;32;34131;-89
2021/12/09 10:30:11;;;;;;;37.80;17.10;;;;;;;0.89;98.66;99340.75;5533008;32;33731;-88
2021/12/09 10:33:22;;;;;;;36.28;16.35;;;;;;;0.89;98.00;99332.06;5557622;26;34484;-89
2021/12/09 10:36:44;;;;;;;32.77;16.40;;;;;;;0.87;98.04;99331.25;5539617;32;34086;-88
2021/12/09 10:39:46;;;;;;;;;;;;;;;0.88;98.49;99322.50;5550890;32;35032;-88
2021/12/09 10:42:52;;;;;;;34.55;16.12;;;;;;;0.82;97.90;99310.50;5552680;32;34339;-88
2021/12/09 10:45:55;;;;;;;35.40;17.33;;;;;;;0.88;98.31;99315.53;5551094;32;33949;-87
2021/12/09 10:49:12;;;;;;;31.10;16.60;;;;;;;1.05;97.27;99324.66;5548888;32;34194;-88
2021/12/09 10:52:38;;;;;;;34.40;16.77;;;;;;;0.87;97.53;99324.28;5551288;32;33832;-88
2021/12/09 10:55:41;;;;;;;34.10;17.48;;;;;;;0.88;97.88;99333.81;5535972;32;34193;-92
2021/12/09 10:58:45;;;;;;;35.22;16.62;;;;;;;0.95;97.46;99321.44;5551013;32;33979;-89
2021/12/09 11:02:06;;;;;;;35.67;17.95;;;;;;;0.93;97.40;99320.63;5552946;32;34462;-89
2021/12/09 11:05:09;;;;;;;;;;;;;;;1.00;97.46;99314.34;5541685;32;34200;-91
2021/12/09 11:08:36;;;;;;;33.25;16.30;;;;;;;1.09;97.13;99313.25;5534764;32;34612;-87
2021/12/09 11:11:42;;;;;;;33.05;16.35;;;;;;;1.12;96.76;99310.56;5537674;32;34167;-88
2021/12/09 11:14:56;;;;;;;33.97;16.52;;;;;;;1.03;98.51;99316.03;5548930;32;33564;-89
2021/12/09 11:18:07;;;;;;;35.25;17.10;;;;;;;0.90;98.11;99302.47;5537687;32;33834;-88
2021/12/09 11:21:23;;;;;;;33.50;16.70;;;;;;;0.83;98.57;99312.19;5530817;32;33466;-87
2021/12/09 11:24:31;;;;;;;37.75;17.85;;;;;;;0.87;99.04;99310.34;5540373;32;33521;-87
2021/12/09 11:27:34;;;;;;;34.55;16.70;;;;;;;0.79;99.05;99289.66;5544990;32;34406;-87
2021/12/09 11:31:10;;;;;;;32.75;16.92;;;;;;;0.79;99.72;99287.06;5531793;32;34362;-87
2021/12/09 11:34:17;;;;;;;34.13;16.73;;;;;;;0.88;99.26;99286.81;5535403;32;34294;-87
2021/12/09 11:40:43;;;;;;;36.15;18.00;;;;;;;0.99;98.72;99277.81;5543266;32;33618;-91
2021/12/09 11:43:45;;;;;;;34.92;17.77;;;;;;;0.84;99.74;99274.75;5547067;32;34777;-87
2021/12/09 11:46:48;;;;;;;35.30;17.87;;;;;;;0.86;99.32;99269.47;5544202;32;33895;-88
2021/12/09 11:49:51;;;;;;;35.38;18.17;;;;;;;0.83;100.00;99277.37;5537224;32;34101;-87
2021/12/09 11:52:57;;;;;;;36.92;17.95;;;;;;;0.79;100.00;99268.78;5540196;32;33958;-87
2021/12/09 11:56:06;;;;;;;34.05;17.17;;;;;;;0.75;100.00;99269.78;5548796;32;33521;-88
2021/12/09 12:13:10;;;;;;;34.67;18.15;;;;;;;0.65;100.00;99237.81;5553333;32;34192;-88
2021/12/09 12:20:21;;;;;;;35.85;17.60;;;;;;;0.70;100.00;99243.78;5546281;32;35007;-85
2021/12/09 12:27:30;;;;;;;36.20;18.92;;;;;;;0.64;100.00;99216.09;5553238;32;33908;-88
2021/12/09 12:31:02;;;;;;;33.53;18.23;;;;;;;0.63;100.00;99216.13;5543996;32;34582;-89
2021/12/09 12:41:06;;;;;;;33.40;18.20;;;;;;;0.57;100.00;99213.69;5561257;32;34703;-87
2021/12/09 12:44:13;;;;;;;35.95;18.08;;;;;;;0.58;100.00;99216.28;5551724;32;33964;-88
2021/12/09 12:47:37;;;;;;;36.53;18.05;;;;;;;0.57;100.00;99211.97;5550772;32;33722;-86
2021/12/09 12:51:16;;;;;;;40.40;19.05;;;;;;;0.48;100.00;99210.44;5551405;32;34251;-85
2021/12/09 12:54:37;;;;;;;33.40;17.65;;;;;;;0.48;100.00;99214.81;5552401;32;34901;-86
2021/12/09 12:57:44;;;;;;;38.67;20.12;;;;;;;0.53;100.00;99225.97;5550460;32;34069;-86
2021/12/09 13:00:52;;;;;;;38.08;19.08;;;;;;;0.77;100.00;99231.44;5548793;32;34129;-86
2021/12/09 13:03:59;;;;;;;40.65;19.30;;;;;;;0.72;100.00;99244.63;5548677;32;34008;-87
2021/12/09 13:14:00;;;;;;;46.33;22.52;;;;;;;0.59;100.00;99249.31;5551290;32;34147;-87
2021/12/09 13:17:13;;;;;;;46.83;22.90;;;;;;;0.49;100.00;99251.31;5546410;32;34327;-87
2021/12/09 13:20:40;;;;;;;54.85;24.98;;;;;;;0.34;100.00;99246.47;5547925;32;34402;-88
2021/12/09 13:24:34;;;;;;;48.47;22.95;;;;;;;0.35;100.00;99248.22;5547568;32;34714;-87
2021/12/09 13:27:53;;;;;;;45.35;20.62;;;;;;;0.28;100.00;99244.00;5546871;32;33803;-87
2021/12/09 13:34:13;;;;;;;34.90;19.25;;;;;;;0.12;100.00;99227.03;5547468;32;34512;-91
2021/12/09 13:40:40;;;;;;;38.75;18.70;;;;;;;0.04;100.00;99225.50;5550467;32;34467;-89
2021/12/09 13:57:05;;;;;;;43.35;21.52;;;;;;;0.10;100.00;99223.59;5544453;32;34043;-88
2021/12/09 14:00:11;;;;;;;34.53;18.75;;;;;;;0.08;100.00;99222.78;5547882;32;34149;-88
2021/12/09 14:03:25;;;;;;;38.55;19.02;;;;;;;0.08;100.00;99216.69;5547948;32;33963;-87
2021/12/09 14:06:37;;;;;;;37.55;18.15;;;;;;;-0.01;100.00;99217.78;5539998;32;33986;-86
2021/12/09 14:09:44;;;;;;;41.53;19.37;;;;;;;-0.06;100.00;99215.28;5544404;32;32524;-86
2021/12/09 14:12:56;;;;;;;38.60;19.45;;;;;;;-0.07;100.00;99216.19;5555155;32;34466;-90
2021/12/09 14:16:13;;;;;;;;;;;;;;;-0.02;100.00;99203.03;5557528;32;34644;-88
2021/12/09 14:22:34;;;;;;;39.03;18.50;;;;;;;-0.03;100.00;99188.28;5552125;32;33644;-88
2021/12/09 14:25:38;;;;;;;36.42;18.98;;;;;;;-0.11;100.00;99185.03;5535773;32;33913;-89
2021/12/09 14:28:41;;;;;;;40.72;18.58;;;;;;;-0.14;100.00;99180.75;5542380;32;34537;-88
2021/12/09 14:31:50;;;;;;;39.38;20.35;;;;;;;-0.16;100.00;99190.34;5537714;32;33613;-88
2021/12/09 14:34:59;;;;;;;42.75;20.75;;;;;;;-0.17;100.00;99183.41;5545464;32;34247;-89
2021/12/09 14:38:22;;;;;;;42.00;19.80;;;;;;;-0.15;100.00;99179.03;5553555;32;34470;-88
2021/12/09 14:41:29;;;;;;;41.75;19.45;;;;;;;-0.19;100.00;99193.03;5539472;32;34577;-89
2021/12/09 14:44:33;;;;;;;36.45;18.25;;;;;;;-0.14;100.00;99215.47;5535503;32;34135;-87
2021/12/09 14:47:36;;;;;;;34.35;18.60;;;;;;;-0.08;100.00;99197.97;5546298;32;33922;-87
2021/12/09 14:50:41;;;;;;;42.62;19.50;;;;;;;-0.12;100.00;99204.16;5532889;32;33775;-86
2021/12/09 14:54:04;;;;;;;42.15;19.20;;;;;;;-0.12;100.00;99191.97;5541764;32;33862;-87
2021/12/09 14:57:13;;;;;;;40.03;19.00;;;;;;;-0.10;100.00;99200.63;5546161;32;34593;-86
2021/12/09 15:00:52;;;;;;;36.83;19.17;;;;;;;-0.16;100.00;99205.97;5547116;32;34144;-87
2021/12/09 15:04:07;;;;;;;41.50;20.17;;;;;;;-0.22;100.00;99191.34;5531069;32;34387;-88
2021/12/09 15:10:35;;;;;;;42.93;21.53;;;;;;;-0.33;100.00;99195.97;5529722;32;34482;-87
2021/12/09 15:13:47;;;;;;;47.08;22.83;;;;;;;-0.23;100.00;99200.06;5534408;32;36193;-87
2021/12/09 15:17:17;;;;;;;44.03;21.45;;;;;;;-0.37;100.00;99192.59;5540337;32;34180;-85
2021/12/09 15:20:20;;;;;;;44.40;21.12;;;;;;;-0.47;100.00;99189.34;5535395;32;33785;-87
2021/12/09 15:23:40;;;;;;;44.90;21.35;;;;;;;-0.52;100.00;99205.97;5535442;32;34013;-86
2021/12/09 15:26:51;;;;;;;39.05;20.52;;;;;;;-0.42;100.00;99213.53;5530018;32;33658;-87
2021/12/09 15:29:53;;;;;;;38.95;19.95;;;;;;;-0.48;100.00;99205.88;5530192;32;33911;-87
2021/12/09 15:32:58;;;;;;;41.03;20.83;;;;;;;-0.52;100.00;99204.22;5541177;32;33776;-86
2021/12/09 15:36:03;;;;;;;41.15;20.25;;;;;;;-0.58;100.00;99194.81;5562098;32;33798;-86
2021/12/09 15:39:21;;;;;;;37.50;20.17;;;;;;;-0.64;100.00;99200.16;5557975;32;35371;-86
2021/12/09 15:42:25;;;;;;;39.00;19.37;;;;;;;-0.64;100.00;99205.38;5549823;32;33672;-86
2021/12/09 15:45:28;;;;;;;36.15;18.52;;;;;;;-0.49;100.00;99205.91;5549664;32;34169;-90
2021/12/09 15:48:36;;;;;;;37.15;18.77;;;;;;;-0.60;100.00;99199.16;5549530;32;34610;-92
2021/12/09 15:51:42;;;;;;;38.55;18.90;;;;;;;-0.49;100.00;99192.87;5549428;32;34122;-89
2021/12/09 15:54:52;;;;;;;42.08;19.90;;;;;;;-0.56;100.00;99193.00;5549909;32;34492;-87
2021/12/09 15:58:00;;;;;;;35.47;18.65;;;;;;;-0.57;100.00;99193.03;5540901;32;33784;-87
2021/12/09 16:01:05;;;;;;;37.10;19.40;;;;;;;-0.57;100.00;99195.66;5548161;32;33910;-88
2021/12/09 16:04:09;;;;;;;41.42;19.75;;;;;;;-0.45;100.00;99191.91;5553729;32;34138;-89
2021/12/09 16:07:12;;;;;;;38.97;19.52;;;;;;;-0.53;100.00;99184.28;5549830;32;34269;-88
2021/12/09 16:10:15;;;;;;;36.65;20.35;;;;;;;-0.63;100.00;99173.22;5551058;32;34396;-86
2021/12/09 16:13:18;;;;;;;36.97;20.05;;;;;;;-0.64;100.00;99184.53;5551881;32;33692;-87
2021/12/09 16:16:21;;;;;;;40.42;20.95;;;;;;;-0.68;100.00;99183.75;5552094;32;34245;-86
2021/12/09 16:19:33;;;;;;;37.45;19.40;;;;;;;-0.64;100.00;99179.31;5552545;32;33438;-87
2021/12/09 16:22:37;;;;;;;38.28;20.48;;;;;;;-0.55;100.00;99179.09;5551546;32;34055;-86
2021/12/09 16:25:42;;;;;;;39.25;19.02;;;;;;;-0.63;100.00;99177.56;5551529;32;35043;-86
2021/12/09 16:28:45;;;;;;;40.25;20.50;;;;;;;-0.69;100.00;99173.34;5557204;32;33629;-86
2021/12/09 16:31:48;;;;;;;37.85;19.05;;;;;;;-0.61;100.00;99176.63;5557935;32;36274;-86
2021/12/09 16:34:55;;;;;;;42.50;20.58;;;;;;;-0.49;100.00;99185.94;5556449;32;34448;-87
2021/12/09 16:37:59;;;;;;;42.80;21.00;;;;;;;-0.48;100.00;99185.03;5553950;32;34087;-87
2021/12/09 16:41:02;;;;;;;40.12;19.80;;;;;;;-0.48;100.00;99187.63;5553218;32;33869;-86
2021/12/09 16:44:06;;;;;;;41.05;20.75;;;;;;;-0.46;100.00;99180.63;5553445;32;34522;-87
2021/12/09 16:47:11;;;;;;;36.63;19.25;;;;;;;-0.41;100.00;99181.38;5551837;32;34537;-87
2021/12/09 16:50:17;;;;;;;38.40;19.55;;;;;;;-0.47;100.00;99189.34;5552034;32;34171;-87
2021/12/09 16:53:28;;;;;;;43.00;20.83;;;;;;;-0.44;100.00;99183.19;5551433;32;34111;-87
